sensor_id;sensor_type;location;lat;lon;timestamp;P1;durP1;ratioP1;P2;durP2;ratioP2
2055;SDS011;1033;52.560;13.374;2023-02-03T00:02:12;9.05;;;5.97;;
2055;SDS011;1033;52.560;13.374;2023-02-03T00:04:46;10.48;;;6.20;;
2055;SDS011;1033;52.560;13.374;2023-02-03T00:07:22;11.02;;;5.57;;
2055;SDS011;1033;52.560;13.374;2023-02-03T00:09:52;8.05;;;5.95;;
2055;SDS011;1033;52.560;13.374;2023-02-03T00:12:25;6.95;;;4.50;;
2055;SDS011;1033;52.560;13.374;2023-02-03T00:14:57;14.68;;;7.05;;
2055;SDS011;1033;52.560;13.374;2023-02-03T00:17:38;12.98;;;6.35;;
2055;SDS011;1033;52.560;13.374;2023-02-03T00:20:15;14.57;;;5.40;;
2055;SDS011;1033;52.560;13.374;2023-02-03T00:22:51;14.57;;;4.63;;
2055;SDS011;1033;52.560;13.374;2023-02-03T00:25:24;6.00;;;4.07;;
2055;SDS011;1033;52.560;13.374;2023-02-03T00:27:58;8.93;;;4.45;;
2055;SDS011;1033;52.560;13.374;2023-02-03T00:30:32;15.43;;;3.53;;
2055;SDS011;1033;52.560;13.374;2023-02-03T00:33:06;6.57;;;4.03;;
2055;SDS011;1033;52.560;13.374;2023-02-03T00:35:37;10.85;;;4.75;;
2055;SDS011;1033;52.560;13.374;2023-02-03T00:38:09;7.68;;;3.60;;
2055;SDS011;1033;52.560;13.374;2023-02-03T00:40:40;10.52;;;3.40;;
2055;SDS011;1033;52.560;13.374;2023-02-03T00:43:10;8.85;;;4.32;;
2055;SDS011;1033;52.560;13.374;2023-02-03T00:45:42;16.02;;;4.05;;
2055;SDS011;1033;52.560;13.374;2023-02-03T00:48:14;8.52;;;3.20;;
2055;SDS011;1033;52.560;13.374;2023-02-03T00:50:44;10.10;;;4.57;;
2055;SDS011;1033;52.560;13.374;2023-02-03T00:53:14;7.47;;;3.60;;
2055;SDS011;1033;52.560;13.374;2023-02-03T00:55:44;12.48;;;3.78;;
2055;SDS011;1033;52.560;13.374;2023-02-03T00:58:13;18.67;;;3.72;;
2055;SDS011;1033;52.560;13.374;2023-02-03T01:00:43;6.63;;;4.00;;
2055;SDS011;1033;52.560;13.374;2023-02-03T01:03:18;6.75;;;3.92;;
2055;SDS011;1033;52.560;13.374;2023-02-03T01:05:51;8.23;;;4.22;;
2055;SDS011;1033;52.560;13.374;2023-02-03T01:08:21;12.68;;;4.72;;
2055;SDS011;1033;52.560;13.374;2023-02-03T01:10:53;9.25;;;4.03;;
2055;SDS011;1033;52.560;13.374;2023-02-03T01:13:23;17.63;;;6.18;;
2055;SDS011;1033;52.560;13.374;2023-02-03T01:15:54;7.65;;;3.58;;
2055;SDS011;1033;52.560;13.374;2023-02-03T01:18:30;7.78;;;3.63;;
2055;SDS011;1033;52.560;13.374;2023-02-03T01:21:06;8.02;;;4.25;;
2055;SDS011;1033;52.560;13.374;2023-02-03T01:23:41;11.57;;;4.55;;
2055;SDS011;1033;52.560;13.374;2023-02-03T01:26:15;10.02;;;4.65;;
2055;SDS011;1033;52.560;13.374;2023-02-03T01:28:49;9.15;;;4.97;;
2055;SDS011;1033;52.560;13.374;2023-02-03T01:31:22;8.63;;;4.80;;
2055;SDS011;1033;52.560;13.374;2023-02-03T01:33:56;8.25;;;5.53;;
2055;SDS011;1033;52.560;13.374;2023-02-03T01:36:29;7.13;;;4.22;;
2055;SDS011;1033;52.560;13.374;2023-02-03T01:39:01;10.18;;;4.45;;
2055;SDS011;1033;52.560;13.374;2023-02-03T01:41:32;10.88;;;4.97;;
2055;SDS011;1033;52.560;13.374;2023-02-03T01:47:10;11.77;;;4.70;;
2055;SDS011;1033;52.560;13.374;2023-02-03T01:49:52;7.20;;;3.78;;
2055;SDS011;1033;52.560;13.374;2023-02-03T01:52:29;5.50;;;4.03;;
2055;SDS011;1033;52.560;13.374;2023-02-03T01:55:01;11.18;;;4.63;;
2055;SDS011;1033;52.560;13.374;2023-02-03T01:57:36;8.50;;;4.18;;
2055;SDS011;1033;52.560;13.374;2023-02-03T02:00:10;10.90;;;3.90;;
2055;SDS011;1033;52.560;13.374;2023-02-03T02:02:44;7.30;;;4.20;;
2055;SDS011;1033;52.560;13.374;2023-02-03T02:05:27;5.15;;;3.88;;
2055;SDS011;1033;52.560;13.374;2023-02-03T02:08:04;6.78;;;4.20;;
2055;SDS011;1033;52.560;13.374;2023-02-03T02:10:36;7.35;;;4.05;;
2055;SDS011;1033;52.560;13.374;2023-02-03T02:13:06;10.50;;;4.55;;
2055;SDS011;1033;52.560;13.374;2023-02-03T02:15:41;4.20;;;3.80;;
2055;SDS011;1033;52.560;13.374;2023-02-03T02:18:20;5.57;;;4.50;;
2055;SDS011;1033;52.560;13.374;2023-02-03T02:21:21;5.00;;;3.70;;
2055;SDS011;1033;52.560;13.374;2023-02-03T02:27:13;5.45;;;4.00;;
2055;SDS011;1033;52.560;13.374;2023-02-03T02:30:25;6.65;;;4.15;;
2055;SDS011;1033;52.560;13.374;2023-02-03T02:33:13;5.60;;;3.70;;
2055;SDS011;1033;52.560;13.374;2023-02-03T02:35:53;11.75;;;4.53;;
2055;SDS011;1033;52.560;13.374;2023-02-03T02:38:38;6.30;;;3.50;;
2055;SDS011;1033;52.560;13.374;2023-02-03T02:41:18;5.50;;;3.95;;
2055;SDS011;1033;52.560;13.374;2023-02-03T02:43:55;7.07;;;4.10;;
2055;SDS011;1033;52.560;13.374;2023-02-03T02:46:32;8.00;;;4.50;;
2055;SDS011;1033;52.560;13.374;2023-02-03T02:49:08;4.50;;;4.10;;
2055;SDS011;1033;52.560;13.374;2023-02-03T02:51:42;4.05;;;3.65;;
2055;SDS011;1033;52.560;13.374;2023-02-03T02:54:17;7.15;;;3.20;;
2055;SDS011;1033;52.560;13.374;2023-02-03T02:56:53;5.05;;;3.70;;
2055;SDS011;1033;52.560;13.374;2023-02-03T02:59:29;3.75;;;3.30;;
2055;SDS011;1033;52.560;13.374;2023-02-03T03:01:58;3.75;;;3.30;;
2055;SDS011;1033;52.560;13.374;2023-02-03T03:04:30;4.15;;;3.50;;
2055;SDS011;1033;52.560;13.374;2023-02-03T03:07:03;4.45;;;3.35;;
2055;SDS011;1033;52.560;13.374;2023-02-03T03:09:37;5.10;;;3.83;;
2055;SDS011;1033;52.560;13.374;2023-02-03T03:12:10;7.43;;;5.25;;
2055;SDS011;1033;52.560;13.374;2023-02-03T03:14:47;6.55;;;4.10;;
2055;SDS011;1033;52.560;13.374;2023-02-03T03:17:22;5.20;;;4.40;;
2055;SDS011;1033;52.560;13.374;2023-02-03T03:19:58;4.38;;;3.40;;
2055;SDS011;1033;52.560;13.374;2023-02-03T03:22:38;4.75;;;3.88;;
2055;SDS011;1033;52.560;13.374;2023-02-03T03:25:13;4.57;;;3.20;;
2055;SDS011;1033;52.560;13.374;2023-02-03T03:27:47;6.45;;;3.67;;
2055;SDS011;1033;52.560;13.374;2023-02-03T03:30:19;4.28;;;3.65;;
2055;SDS011;1033;52.560;13.374;2023-02-03T03:32:53;3.47;;;3.15;;
2055;SDS011;1033;52.560;13.374;2023-02-03T03:35:27;6.93;;;3.13;;
2055;SDS011;1033;52.560;13.374;2023-02-03T03:38:01;4.07;;;2.90;;
2055;SDS011;1033;52.560;13.374;2023-02-03T03:40:36;3.75;;;3.00;;
2055;SDS011;1033;52.560;13.374;2023-02-03T03:43:10;5.13;;;2.88;;
2055;SDS011;1033;52.560;13.374;2023-02-03T03:45:45;3.30;;;2.97;;
2055;SDS011;1033;52.560;13.374;2023-02-03T03:48:20;5.35;;;3.67;;
2055;SDS011;1033;52.560;13.374;2023-02-03T03:50:57;3.28;;;2.50;;
2055;SDS011;1033;52.560;13.374;2023-02-03T03:53:30;2.67;;;2.45;;
2055;SDS011;1033;52.560;13.374;2023-02-03T03:56:02;3.05;;;2.38;;
2055;SDS011;1033;52.560;13.374;2023-02-03T03:58:39;2.92;;;2.45;;
2055;SDS011;1033;52.560;13.374;2023-02-03T04:01:13;2.95;;;2.55;;
2055;SDS011;1033;52.560;13.374;2023-02-03T04:03:44;3.10;;;2.60;;
2055;SDS011;1033;52.560;13.374;2023-02-03T04:06:18;4.03;;;3.17;;
2055;SDS011;1033;52.560;13.374;2023-02-03T04:08:47;3.13;;;2.83;;
2055;SDS011;1033;52.560;13.374;2023-02-03T04:11:17;4.45;;;3.47;;
2055;SDS011;1033;52.560;13.374;2023-02-03T04:14:01;4.85;;;3.08;;
2055;SDS011;1033;52.560;13.374;2023-02-03T04:16:30;4.00;;;2.75;;
2055;SDS011;1033;52.560;13.374;2023-02-03T04:19:00;4.45;;;2.70;;
2055;SDS011;1033;52.560;13.374;2023-02-03T04:21:32;3.85;;;2.72;;
2055;SDS011;1033;52.560;13.374;2023-02-03T04:24:02;4.30;;;3.67;;
2055;SDS011;1033;52.560;13.374;2023-02-03T04:26:32;3.45;;;3.15;;
2055;SDS011;1033;52.560;13.374;2023-02-03T04:29:04;4.85;;;4.35;;
2055;SDS011;1033;52.560;13.374;2023-02-03T04:31:33;5.60;;;4.60;;
2055;SDS011;1033;52.560;13.374;2023-02-03T04:34:04;5.75;;;4.45;;
2055;SDS011;1033;52.560;13.374;2023-02-03T04:36:35;6.18;;;5.10;;
2055;SDS011;1033;52.560;13.374;2023-02-03T04:39:04;6.05;;;5.45;;
2055;SDS011;1033;52.560;13.374;2023-02-03T04:41:33;6.78;;;5.25;;
2055;SDS011;1033;52.560;13.374;2023-02-03T04:44:03;7.32;;;6.47;;
2055;SDS011;1033;52.560;13.374;2023-02-03T04:46:32;18.30;;;6.78;;
2055;SDS011;1033;52.560;13.374;2023-02-03T04:49:02;6.72;;;6.03;;
2055;SDS011;1033;52.560;13.374;2023-02-03T04:51:32;9.07;;;6.78;;
2055;SDS011;1033;52.560;13.374;2023-02-03T04:54:03;9.00;;;6.35;;
2055;SDS011;1033;52.560;13.374;2023-02-03T04:56:32;11.52;;;7.57;;
2055;SDS011;1033;52.560;13.374;2023-02-03T04:59:02;11.32;;;7.75;;
2055;SDS011;1033;52.560;13.374;2023-02-03T05:01:31;10.35;;;9.07;;
2055;SDS011;1033;52.560;13.374;2023-02-03T05:04:01;10.20;;;8.68;;
2055;SDS011;1033;52.560;13.374;2023-02-03T05:06:30;16.10;;;10.93;;
2055;SDS011;1033;52.560;13.374;2023-02-03T05:09:02;11.35;;;8.15;;
2055;SDS011;1033;52.560;13.374;2023-02-03T05:11:32;16.80;;;11.70;;
2055;SDS011;1033;52.560;13.374;2023-02-03T05:14:01;13.50;;;10.40;;
2055;SDS011;1033;52.560;13.374;2023-02-03T05:16:31;14.95;;;11.80;;
2055;SDS011;1033;52.560;13.374;2023-02-03T05:19:00;16.58;;;13.10;;
2055;SDS011;1033;52.560;13.374;2023-02-03T05:21:30;17.65;;;12.80;;
2055;SDS011;1033;52.560;13.374;2023-02-03T05:24:00;17.13;;;12.88;;
2055;SDS011;1033;52.560;13.374;2023-02-03T05:26:34;20.25;;;13.27;;
2055;SDS011;1033;52.560;13.374;2023-02-03T05:29:04;19.55;;;13.68;;
2055;SDS011;1033;52.560;13.374;2023-02-03T05:31:40;23.77;;;15.18;;
2055;SDS011;1033;52.560;13.374;2023-02-03T05:34:12;22.33;;;14.07;;
2055;SDS011;1033;52.560;13.374;2023-02-03T05:36:44;19.23;;;14.48;;
2055;SDS011;1033;52.560;13.374;2023-02-03T05:39:19;23.95;;;15.65;;
2055;SDS011;1033;52.560;13.374;2023-02-03T05:41:53;27.38;;;14.88;;
2055;SDS011;1033;52.560;13.374;2023-02-03T05:44:24;24.42;;;15.30;;
2055;SDS011;1033;52.560;13.374;2023-02-03T05:46:57;28.65;;;16.98;;
2055;SDS011;1033;52.560;13.374;2023-02-03T05:49:31;25.45;;;17.45;;
2055;SDS011;1033;52.560;13.374;2023-02-03T05:52:01;27.42;;;17.98;;
2055;SDS011;1033;52.560;13.374;2023-02-03T05:54:33;26.58;;;17.83;;
2055;SDS011;1033;52.560;13.374;2023-02-03T05:57:03;22.35;;;15.55;;
2055;SDS011;1033;52.560;13.374;2023-02-03T05:59:35;25.88;;;17.13;;
2055;SDS011;1033;52.560;13.374;2023-02-03T06:02:05;31.40;;;18.90;;
2055;SDS011;1033;52.560;13.374;2023-02-03T06:04:35;30.73;;;18.75;;
2055;SDS011;1033;52.560;13.374;2023-02-03T06:07:05;26.42;;;19.45;;
2055;SDS011;1033;52.560;13.374;2023-02-03T06:09:36;29.63;;;18.90;;
2055;SDS011;1033;52.560;13.374;2023-02-03T06:12:06;31.33;;;20.67;;
2055;SDS011;1033;52.560;13.374;2023-02-03T06:14:36;30.83;;;18.75;;
2055;SDS011;1033;52.560;13.374;2023-02-03T06:17:07;25.80;;;18.10;;
2055;SDS011;1033;52.560;13.374;2023-02-03T06:19:37;25.77;;;18.42;;
2055;SDS011;1033;52.560;13.374;2023-02-03T06:22:07;31.02;;;18.30;;
2055;SDS011;1033;52.560;13.374;2023-02-03T06:24:38;29.15;;;18.58;;
2055;SDS011;1033;52.560;13.374;2023-02-03T06:27:10;27.27;;;17.90;;
2055;SDS011;1033;52.560;13.374;2023-02-03T06:29:40;28.23;;;19.45;;
2055;SDS011;1033;52.560;13.374;2023-02-03T06:32:11;25.15;;;17.20;;
2055;SDS011;1033;52.560;13.374;2023-02-03T06:34:41;27.63;;;17.98;;
2055;SDS011;1033;52.560;13.374;2023-02-03T06:37:10;30.73;;;17.10;;
2055;SDS011;1033;52.560;13.374;2023-02-03T06:39:42;30.67;;;19.20;;
2055;SDS011;1033;52.560;13.374;2023-02-03T06:42:11;26.88;;;17.27;;
2055;SDS011;1033;52.560;13.374;2023-02-03T06:44:41;27.73;;;19.40;;
2055;SDS011;1033;52.560;13.374;2023-02-03T06:47:11;22.27;;;15.70;;
2055;SDS011;1033;52.560;13.374;2023-02-03T06:49:41;24.77;;;18.10;;
2055;SDS011;1033;52.560;13.374;2023-02-03T06:52:11;32.45;;;19.02;;
2055;SDS011;1033;52.560;13.374;2023-02-03T06:54:43;25.17;;;16.52;;
2055;SDS011;1033;52.560;13.374;2023-02-03T06:57:12;29.70;;;17.50;;
2055;SDS011;1033;52.560;13.374;2023-02-03T06:59:44;25.27;;;17.75;;
2055;SDS011;1033;52.560;13.374;2023-02-03T07:02:14;31.30;;;17.27;;
2055;SDS011;1033;52.560;13.374;2023-02-03T07:04:47;22.25;;;14.80;;
2055;SDS011;1033;52.560;13.374;2023-02-03T07:07:17;26.70;;;16.45;;
2055;SDS011;1033;52.560;13.374;2023-02-03T07:09:48;19.77;;;15.48;;
2055;SDS011;1033;52.560;13.374;2023-02-03T07:12:18;18.05;;;16.10;;
2055;SDS011;1033;52.560;13.374;2023-02-03T07:14:48;23.80;;;16.40;;
2055;SDS011;1033;52.560;13.374;2023-02-03T07:17:19;23.08;;;15.07;;
2055;SDS011;1033;52.560;13.374;2023-02-03T07:19:49;22.42;;;16.20;;
2055;SDS011;1033;52.560;13.374;2023-02-03T07:22:19;24.20;;;15.65;;
2055;SDS011;1033;52.560;13.374;2023-02-03T07:24:49;16.88;;;14.43;;
2055;SDS011;1033;52.560;13.374;2023-02-03T07:27:22;21.42;;;15.68;;
2055;SDS011;1033;52.560;13.374;2023-02-03T07:29:53;22.33;;;15.35;;
2055;SDS011;1033;52.560;13.374;2023-02-03T07:32:23;16.85;;;14.45;;
2055;SDS011;1033;52.560;13.374;2023-02-03T07:34:52;24.60;;;15.05;;
2055;SDS011;1033;52.560;13.374;2023-02-03T07:37:22;18.95;;;13.20;;
2055;SDS011;1033;52.560;13.374;2023-02-03T07:39:53;20.75;;;14.55;;
2055;SDS011;1033;52.560;13.374;2023-02-03T07:42:23;21.10;;;15.30;;
2055;SDS011;1033;52.560;13.374;2023-02-03T07:44:54;18.52;;;14.45;;
2055;SDS011;1033;52.560;13.374;2023-02-03T07:47:23;18.10;;;15.07;;
2055;SDS011;1033;52.560;13.374;2023-02-03T07:49:53;16.38;;;13.80;;
2055;SDS011;1033;52.560;13.374;2023-02-03T07:52:23;16.50;;;12.18;;
2055;SDS011;1033;52.560;13.374;2023-02-03T07:54:54;20.27;;;15.55;;
2055;SDS011;1033;52.560;13.374;2023-02-03T07:57:24;19.98;;;13.00;;
2055;SDS011;1033;52.560;13.374;2023-02-03T07:59:57;16.65;;;13.52;;
2055;SDS011;1033;52.560;13.374;2023-02-03T08:02:37;17.00;;;12.70;;
2055;SDS011;1033;52.560;13.374;2023-02-03T08:05:07;14.13;;;11.05;;
2055;SDS011;1033;52.560;13.374;2023-02-03T08:07:37;12.75;;;11.00;;
2055;SDS011;1033;52.560;13.374;2023-02-03T08:10:09;13.43;;;12.02;;
2055;SDS011;1033;52.560;13.374;2023-02-03T08:12:41;13.15;;;11.15;;
2055;SDS011;1033;52.560;13.374;2023-02-03T08:15:15;14.30;;;11.07;;
2055;SDS011;1033;52.560;13.374;2023-02-03T08:17:45;13.98;;;10.85;;
2055;SDS011;1033;52.560;13.374;2023-02-03T08:20:18;14.57;;;11.60;;
2055;SDS011;1033;52.560;13.374;2023-02-03T08:22:48;16.05;;;10.25;;
2055;SDS011;1033;52.560;13.374;2023-02-03T08:25:19;11.30;;;9.55;;
2055;SDS011;1033;52.560;13.374;2023-02-03T08:27:49;10.25;;;9.13;;
2055;SDS011;1033;52.560;13.374;2023-02-03T08:30:20;15.70;;;10.02;;
2055;SDS011;1033;52.560;13.374;2023-02-03T08:32:50;11.15;;;7.88;;
2055;SDS011;1033;52.560;13.374;2023-02-03T08:35:23;14.88;;;8.35;;
2055;SDS011;1033;52.560;13.374;2023-02-03T08:37:52;12.20;;;10.13;;
2055;SDS011;1033;52.560;13.374;2023-02-03T08:40:26;10.20;;;8.85;;
2055;SDS011;1033;52.560;13.374;2023-02-03T08:42:56;10.30;;;8.90;;
2055;SDS011;1033;52.560;13.374;2023-02-03T08:45:26;11.18;;;8.73;;
2055;SDS011;1033;52.560;13.374;2023-02-03T08:47:55;9.73;;;8.63;;
2055;SDS011;1033;52.560;13.374;2023-02-03T08:50:25;11.65;;;8.70;;
2055;SDS011;1033;52.560;13.374;2023-02-03T08:52:56;16.30;;;8.65;;
2055;SDS011;1033;52.560;13.374;2023-02-03T08:55:27;13.30;;;8.52;;
2055;SDS011;1033;52.560;13.374;2023-02-03T08:57:59;10.10;;;7.00;;
2055;SDS011;1033;52.560;13.374;2023-02-03T09:00:29;12.85;;;7.95;;
2055;SDS011;1033;52.560;13.374;2023-02-03T09:02:59;11.45;;;8.93;;
2055;SDS011;1033;52.560;13.374;2023-02-03T09:05:37;10.38;;;7.55;;
2055;SDS011;1033;52.560;13.374;2023-02-03T09:08:07;12.50;;;9.07;;
2055;SDS011;1033;52.560;13.374;2023-02-03T09:10:38;9.38;;;7.75;;
2055;SDS011;1033;52.560;13.374;2023-02-03T09:13:08;9.93;;;7.35;;
2055;SDS011;1033;52.560;13.374;2023-02-03T09:15:38;7.10;;;5.82;;
2055;SDS011;1033;52.560;13.374;2023-02-03T09:18:37;8.20;;;6.57;;
2055;SDS011;1033;52.560;13.374;2023-02-03T09:21:30;9.60;;;6.90;;
2055;SDS011;1033;52.560;13.374;2023-02-03T09:24:21;13.02;;;7.53;;
2055;SDS011;1033;52.560;13.374;2023-02-03T09:27:20;7.45;;;6.30;;
2055;SDS011;1033;52.560;13.374;2023-02-03T09:30:14;7.60;;;6.78;;
2055;SDS011;1033;52.560;13.374;2023-02-03T09:33:22;8.05;;;6.15;;
2055;SDS011;1033;52.560;13.374;2023-02-03T09:36:35;8.75;;;6.63;;
2055;SDS011;1033;52.560;13.374;2023-02-03T09:39:26;11.35;;;5.80;;
2055;SDS011;1033;52.560;13.374;2023-02-03T09:45:35;6.55;;;5.80;;
2055;SDS011;1033;52.560;13.374;2023-02-03T09:48:19;6.47;;;4.60;;
2055;SDS011;1033;52.560;13.374;2023-02-03T09:51:00;7.28;;;5.10;;
2055;SDS011;1033;52.560;13.374;2023-02-03T09:54:20;8.05;;;5.35;;
2055;SDS011;1033;52.560;13.374;2023-02-03T09:57:53;5.95;;;5.35;;
2055;SDS011;1033;52.560;13.374;2023-02-03T10:01:02;6.60;;;4.40;;
2055;SDS011;1033;52.560;13.374;2023-02-03T10:04:20;8.95;;;6.05;;
2055;SDS011;1033;52.560;13.374;2023-02-03T10:07:27;6.50;;;4.03;;
2055;SDS011;1033;52.560;13.374;2023-02-03T10:10:14;6.35;;;5.25;;
2055;SDS011;1033;52.560;13.374;2023-02-03T10:20:04;3.90;;;3.42;;
2055;SDS011;1033;52.560;13.374;2023-02-03T10:23:10;7.28;;;3.67;;
2055;SDS011;1033;52.560;13.374;2023-02-03T10:26:19;5.07;;;3.78;;
2055;SDS011;1033;52.560;13.374;2023-02-03T10:29:34;3.28;;;2.97;;
2055;SDS011;1033;52.560;13.374;2023-02-03T10:32:29;2.90;;;2.33;;
2055;SDS011;1033;52.560;13.374;2023-02-03T10:35:44;3.58;;;2.53;;
2055;SDS011;1033;52.560;13.374;2023-02-03T10:39:20;2.72;;;1.85;;
2055;SDS011;1033;52.560;13.374;2023-02-03T10:46:05;9.32;;;2.00;;
2055;SDS011;1033;52.560;13.374;2023-02-03T10:48:34;8.90;;;1.73;;
2055;SDS011;1033;52.560;13.374;2023-02-03T10:51:04;4.32;;;1.35;;
2055;SDS011;1033;52.560;13.374;2023-02-03T10:53:44;2.03;;;1.10;;
2055;SDS011;1033;52.560;13.374;2023-02-03T10:56:14;5.50;;;2.45;;
2055;SDS011;1033;52.560;13.374;2023-02-03T10:58:45;11.32;;;2.33;;
2055;SDS011;1033;52.560;13.374;2023-02-03T11:01:18;10.20;;;2.10;;
2055;SDS011;1033;52.560;13.374;2023-02-03T11:03:59;11.55;;;2.17;;
2055;SDS011;1033;52.560;13.374;2023-02-03T11:06:29;6.07;;;2.05;;
2055;SDS011;1033;52.560;13.374;2023-02-03T11:09:01;11.45;;;1.92;;
2055;SDS011;1033;52.560;13.374;2023-02-03T11:12:05;8.02;;;1.90;;
2055;SDS011;1033;52.560;13.374;2023-02-03T11:14:39;8.95;;;2.67;;
2055;SDS011;1033;52.560;13.374;2023-02-03T11:17:15;9.35;;;2.15;;
2055;SDS011;1033;52.560;13.374;2023-02-03T11:19:45;14.27;;;2.80;;
2055;SDS011;1033;52.560;13.374;2023-02-03T11:22:25;7.32;;;2.15;;
2055;SDS011;1033;52.560;13.374;2023-02-03T11:24:56;10.38;;;2.90;;
2055;SDS011;1033;52.560;13.374;2023-02-03T11:27:28;5.32;;;2.03;;
2055;SDS011;1033;52.560;13.374;2023-02-03T11:30:09;11.63;;;3.45;;
2055;SDS011;1033;52.560;13.374;2023-02-03T11:32:43;9.10;;;2.03;;
2055;SDS011;1033;52.560;13.374;2023-02-03T11:35:16;7.95;;;2.05;;
2055;SDS011;1033;52.560;13.374;2023-02-03T11:37:50;19.40;;;4.20;;
2055;SDS011;1033;52.560;13.374;2023-02-03T11:40:22;9.50;;;2.85;;
2055;SDS011;1033;52.560;13.374;2023-02-03T11:43:00;19.50;;;2.85;;
2055;SDS011;1033;52.560;13.374;2023-02-03T11:45:35;5.63;;;2.20;;
2055;SDS011;1033;52.560;13.374;2023-02-03T11:48:16;13.30;;;3.60;;
2055;SDS011;1033;52.560;13.374;2023-02-03T11:50:55;18.80;;;3.53;;
2055;SDS011;1033;52.560;13.374;2023-02-03T11:53:34;14.55;;;3.25;;
2055;SDS011;1033;52.560;13.374;2023-02-03T11:56:29;12.65;;;3.42;;
2055;SDS011;1033;52.560;13.374;2023-02-03T11:59:10;9.80;;;2.97;;
2055;SDS011;1033;52.560;13.374;2023-02-03T12:05:08;20.00;;;4.15;;
2055;SDS011;1033;52.560;13.374;2023-02-03T12:08:02;19.95;;;4.78;;
2055;SDS011;1033;52.560;13.374;2023-02-03T12:10:49;11.68;;;3.20;;
2055;SDS011;1033;52.560;13.374;2023-02-03T12:13:35;13.38;;;3.20;;
2055;SDS011;1033;52.560;13.374;2023-02-03T12:16:25;19.63;;;3.80;;
2055;SDS011;1033;52.560;13.374;2023-02-03T12:19:10;15.45;;;4.20;;
2055;SDS011;1033;52.560;13.374;2023-02-03T12:21:49;23.92;;;4.32;;
2055;SDS011;1033;52.560;13.374;2023-02-03T12:24:28;25.38;;;4.35;;
2055;SDS011;1033;52.560;13.374;2023-02-03T12:27:12;18.25;;;5.35;;
2055;SDS011;1033;52.560;13.374;2023-02-03T12:30:50;12.02;;;4.00;;
2055;SDS011;1033;52.560;13.374;2023-02-03T12:33:27;16.38;;;6.05;;
2055;SDS011;1033;52.560;13.374;2023-02-03T12:36:04;18.17;;;4.93;;
2055;SDS011;1033;52.560;13.374;2023-02-03T12:38:40;18.48;;;5.45;;
2055;SDS011;1033;52.560;13.374;2023-02-03T12:41:19;12.73;;;3.92;;
2055;SDS011;1033;52.560;13.374;2023-02-03T12:43:53;16.58;;;4.45;;
2055;SDS011;1033;52.560;13.374;2023-02-03T12:46:31;19.98;;;4.47;;
2055;SDS011;1033;52.560;13.374;2023-02-03T12:49:09;14.07;;;3.83;;
2055;SDS011;1033;52.560;13.374;2023-02-03T12:51:53;17.35;;;5.70;;
2055;SDS011;1033;52.560;13.374;2023-02-03T12:54:36;9.82;;;3.20;;
2055;SDS011;1033;52.560;13.374;2023-02-03T12:57:14;4.90;;;1.67;;
2055;SDS011;1033;52.560;13.374;2023-02-03T12:59:55;12.75;;;1.67;;
2055;SDS011;1033;52.560;13.374;2023-02-03T13:02:31;8.35;;;1.60;;
2055;SDS011;1033;52.560;13.374;2023-02-03T13:05:14;2.70;;;1.55;;
2055;SDS011;1033;52.560;13.374;2023-02-03T13:07:51;5.40;;;1.83;;
2055;SDS011;1033;52.560;13.374;2023-02-03T13:10:30;4.68;;;1.52;;
2055;SDS011;1033;52.560;13.374;2023-02-03T13:13:06;6.22;;;2.42;;
2055;SDS011;1033;52.560;13.374;2023-02-03T13:15:42;8.48;;;2.20;;
2055;SDS011;1033;52.560;13.374;2023-02-03T13:18:17;3.75;;;1.80;;
2055;SDS011;1033;52.560;13.374;2023-02-03T13:20:52;5.65;;;2.80;;
2055;SDS011;1033;52.560;13.374;2023-02-03T13:23:22;11.10;;;2.88;;
2055;SDS011;1033;52.560;13.374;2023-02-03T13:29:08;7.93;;;2.38;;
2055;SDS011;1033;52.560;13.374;2023-02-03T13:32:00;13.30;;;4.65;;
2055;SDS011;1033;52.560;13.374;2023-02-03T13:34:53;15.95;;;3.35;;
2055;SDS011;1033;52.560;13.374;2023-02-03T13:37:55;12.15;;;2.42;;
2055;SDS011;1033;52.560;13.374;2023-02-03T13:40:43;18.17;;;3.28;;
2055;SDS011;1033;52.560;13.374;2023-02-03T13:43:23;10.13;;;3.42;;
2055;SDS011;1033;52.560;13.374;2023-02-03T13:46:06;14.77;;;4.28;;
2055;SDS011;1033;52.560;13.374;2023-02-03T13:48:51;12.73;;;3.17;;
2055;SDS011;1033;52.560;13.374;2023-02-03T13:51:28;21.35;;;3.58;;
2055;SDS011;1033;52.560;13.374;2023-02-03T13:54:01;9.80;;;4.18;;
2055;SDS011;1033;52.560;13.374;2023-02-03T13:56:33;22.52;;;3.80;;
2055;SDS011;1033;52.560;13.374;2023-02-03T13:59:04;16.50;;;3.95;;
2055;SDS011;1033;52.560;13.374;2023-02-03T14:02:28;26.52;;;4.85;;
2055;SDS011;1033;52.560;13.374;2023-02-03T14:05:01;18.63;;;4.50;;
2055;SDS011;1033;52.560;13.374;2023-02-03T14:07:33;13.68;;;3.38;;
2055;SDS011;1033;52.560;13.374;2023-02-03T14:10:19;16.27;;;5.97;;
2055;SDS011;1033;52.560;13.374;2023-02-03T14:12:56;22.80;;;4.40;;
2055;SDS011;1033;52.560;13.374;2023-02-03T14:15:32;21.77;;;4.38;;
2055;SDS011;1033;52.560;13.374;2023-02-03T14:21:13;30.73;;;6.18;;
2055;SDS011;1033;52.560;13.374;2023-02-03T14:23:52;24.25;;;4.85;;
2055;SDS011;1033;52.560;13.374;2023-02-03T14:26:41;17.63;;;5.45;;
2055;SDS011;1033;52.560;13.374;2023-02-03T14:29:23;25.70;;;4.57;;
2055;SDS011;1033;52.560;13.374;2023-02-03T14:31:57;31.38;;;5.00;;
2055;SDS011;1033;52.560;13.374;2023-02-03T14:34:32;18.40;;;3.83;;
2055;SDS011;1033;52.560;13.374;2023-02-03T14:37:10;20.67;;;5.50;;
2055;SDS011;1033;52.560;13.374;2023-02-03T14:39:58;14.52;;;3.72;;
2055;SDS011;1033;52.560;13.374;2023-02-03T14:42:53;25.23;;;5.60;;
2055;SDS011;1033;52.560;13.374;2023-02-03T14:45:48;20.63;;;5.10;;
2055;SDS011;1033;52.560;13.374;2023-02-03T14:48:45;22.80;;;5.07;;
2055;SDS011;1033;52.560;13.374;2023-02-03T14:51:33;24.10;;;4.45;;
2055;SDS011;1033;52.560;13.374;2023-02-03T14:54:25;15.38;;;4.57;;
2055;SDS011;1033;52.560;13.374;2023-02-03T14:57:13;28.60;;;5.32;;
2055;SDS011;1033;52.560;13.374;2023-02-03T14:59:57;33.25;;;7.25;;
2055;SDS011;1033;52.560;13.374;2023-02-03T15:02:33;32.63;;;6.55;;
2055;SDS011;1033;52.560;13.374;2023-02-03T15:05:36;17.45;;;6.60;;
2055;SDS011;1033;52.560;13.374;2023-02-03T15:11:25;21.58;;;6.47;;
2055;SDS011;1033;52.560;13.374;2023-02-03T15:14:13;17.55;;;4.57;;
2055;SDS011;1033;52.560;13.374;2023-02-03T15:17:02;19.25;;;4.70;;
2055;SDS011;1033;52.560;13.374;2023-02-03T15:19:43;18.67;;;7.15;;
2055;SDS011;1033;52.560;13.374;2023-02-03T15:22:18;21.48;;;3.15;;
2055;SDS011;1033;52.560;13.374;2023-02-03T15:24:52;24.38;;;6.90;;
2055;SDS011;1033;52.560;13.374;2023-02-03T15:27:28;11.10;;;3.88;;
2055;SDS011;1033;52.560;13.374;2023-02-03T15:30:13;22.15;;;8.18;;
2055;SDS011;1033;52.560;13.374;2023-02-03T15:32:45;20.83;;;5.72;;
2055;SDS011;1033;52.560;13.374;2023-02-03T15:35:29;15.27;;;4.43;;
2055;SDS011;1033;52.560;13.374;2023-02-03T15:38:05;33.92;;;6.60;;
2055;SDS011;1033;52.560;13.374;2023-02-03T15:40:46;18.67;;;5.43;;
2055;SDS011;1033;52.560;13.374;2023-02-03T15:43:23;15.55;;;4.28;;
2055;SDS011;1033;52.560;13.374;2023-02-03T15:46:05;14.30;;;5.35;;
2055;SDS011;1033;52.560;13.374;2023-02-03T15:48:48;20.25;;;4.35;;
2055;SDS011;1033;52.560;13.374;2023-02-03T15:51:23;21.55;;;4.38;;
2055;SDS011;1033;52.560;13.374;2023-02-03T15:54:05;18.05;;;4.57;;
2055;SDS011;1033;52.560;13.374;2023-02-03T15:56:46;15.32;;;3.55;;
2055;SDS011;1033;52.560;13.374;2023-02-03T15:59:25;13.63;;;3.05;;
2055;SDS011;1033;52.560;13.374;2023-02-03T16:02:04;12.95;;;3.90;;
2055;SDS011;1033;52.560;13.374;2023-02-03T16:04:44;15.25;;;3.85;;
2055;SDS011;1033;52.560;13.374;2023-02-03T16:07:19;19.63;;;6.03;;
2055;SDS011;1033;52.560;13.374;2023-02-03T16:09:54;20.42;;;4.20;;
2055;SDS011;1033;52.560;13.374;2023-02-03T16:12:26;20.08;;;5.00;;
2055;SDS011;1033;52.560;13.374;2023-02-03T16:15:03;11.07;;;5.75;;
2055;SDS011;1033;52.560;13.374;2023-02-03T16:17:36;12.13;;;3.72;;
2055;SDS011;1033;52.560;13.374;2023-02-03T16:20:19;16.77;;;4.53;;
2055;SDS011;1033;52.560;13.374;2023-02-03T16:23:03;11.68;;;4.30;;
2055;SDS011;1033;52.560;13.374;2023-02-03T16:26:04;30.10;;;6.43;;